createdAt,value
2019-01-20T00:02:01.638Z,-0.90
2019-01-20T00:04:32.230Z,-1.10
2019-01-20T00:07:02.785Z,-1.00
2019-01-20T00:09:33.358Z,-1.30
2019-01-20T00:12:03.893Z,-1.60
2019-01-20T00:14:34.425Z,-1.60
2019-01-20T00:17:05.012Z,-1.40
2019-01-20T00:19:35.601Z,-1.60
2019-01-20T00:22:06.315Z,-1.80
2019-01-20T00:24:36.860Z,-1.70
2019-01-20T00:27:07.436Z,-1.50
2019-01-20T00:29:37.972Z,-1.70
2019-01-20T00:32:08.560Z,-1.50
2019-01-20T00:34:39.093Z,-1.30
2019-01-20T00:37:09.656Z,-1.30
2019-01-20T00:39:40.254Z,-1.10
2019-01-20T00:42:10.811Z,-1.00
2019-01-20T00:44:41.368Z,-1.20
2019-01-20T00:47:11.926Z,-1.00
2019-01-20T00:49:42.544Z,-0.80
2019-01-20T00:52:13.109Z,-0.60
2019-01-20T00:54:43.672Z,-0.70
2019-01-20T00:57:14.233Z,-0.90
2019-01-20T00:59:44.775Z,-0.60
2019-01-20T01:02:15.484Z,-0.70
2019-01-20T01:04:46.020Z,-0.60
2019-01-20T01:07:16.575Z,-0.70
2019-01-20T01:09:47.153Z,-0.60
2019-01-20T01:12:18.956Z,-0.70
2019-01-20T01:14:49.501Z,-0.50
2019-01-20T01:17:20.025Z,-0.70
2019-01-20T01:19:50.552Z,-0.50
2019-01-20T01:22:21.150Z,-0.40
2019-01-20T01:24:51.773Z,-0.70
2019-01-20T01:27:22.328Z,-0.40
2019-01-20T01:29:52.872Z,-0.60
2019-01-20T01:32:23.412Z,-0.50
2019-01-20T01:34:53.960Z,-0.40
2019-01-20T01:37:24.514Z,-0.40
2019-01-20T01:39:55.036Z,-0.40
2019-01-20T01:42:25.559Z,-0.40
2019-01-20T01:44:56.133Z,-0.30
2019-01-20T01:47:26.707Z,-0.50
2019-01-20T01:49:57.232Z,-0.40
2019-01-20T01:52:27.749Z,-0.40
2019-01-20T01:54:58.332Z,-0.30
2019-01-20T01:57:29.472Z,-0.50
2019-01-20T02:00:00.096Z,-0.20
2019-01-20T02:02:30.693Z,-0.50
2019-01-20T02:05:01.249Z,-0.30
2019-01-20T02:07:31.828Z,-0.50
2019-01-20T02:10:02.391Z,-0.60
2019-01-20T02:12:32.927Z,-0.40
2019-01-20T02:15:03.482Z,-0.30
2019-01-20T02:17:34.035Z,-0.20
2019-01-20T02:20:04.904Z,-0.30
2019-01-20T02:22:35.444Z,-0.40
2019-01-20T02:25:05.987Z,-0.40
2019-01-20T02:27:36.535Z,-0.50
2019-01-20T02:30:10.775Z,-0.40
2019-01-20T02:32:41.288Z,-0.30
2019-01-20T02:35:11.873Z,-0.50
2019-01-20T02:37:42.488Z,-0.60
2019-01-20T02:40:13.582Z,-0.30
2019-01-20T02:42:44.536Z,-0.40
2019-01-20T02:45:15.216Z,-0.30
2019-01-20T02:47:45.766Z,-0.50
2019-01-20T02:50:16.820Z,-0.60
2019-01-20T02:52:47.340Z,-0.40
2019-01-20T02:55:17.959Z,-0.60
2019-01-20T02:57:48.531Z,-0.50
2019-01-20T03:00:21.372Z,-0.30
2019-01-20T03:02:51.975Z,-0.30
2019-01-20T03:05:23.837Z,-0.70
2019-01-20T03:07:54.380Z,-0.70
2019-01-20T03:10:24.929Z,-0.60
2019-01-20T03:12:55.481Z,-0.50
2019-01-20T03:15:26.044Z,-0.40
2019-01-20T03:17:56.664Z,-0.60
2019-01-20T03:20:27.250Z,-0.70
2019-01-20T03:22:57.815Z,-0.60
2019-01-20T03:25:28.344Z,-0.40
2019-01-20T03:27:58.915Z,-0.60
2019-01-20T03:30:29.467Z,-0.50
2019-01-20T03:33:00.128Z,-0.60
2019-01-20T03:35:30.697Z,-0.60
2019-01-20T03:38:02.389Z,-0.70
2019-01-20T03:40:32.949Z,-0.70
2019-01-20T03:43:03.793Z,-0.60
2019-01-20T03:45:34.336Z,-0.50
2019-01-20T03:48:04.873Z,-0.70
2019-01-20T03:50:35.437Z,-0.70
2019-01-20T03:53:05.962Z,-0.50
2019-01-20T03:55:36.514Z,-0.80
2019-01-20T03:58:07.037Z,-0.60
2019-01-20T04:00:37.596Z,-0.80
2019-01-20T04:03:08.239Z,-0.80
2019-01-20T04:05:38.811Z,-0.50
2019-01-20T04:08:09.333Z,-0.90
2019-01-20T04:10:39.912Z,-0.90
2019-01-20T04:13:10.480Z,-0.80
2019-01-20T04:15:41.020Z,-0.80
2019-01-20T04:18:11.575Z,-0.50
2019-01-20T04:20:42.130Z,-0.70
2019-01-20T04:23:12.648Z,-0.80
2019-01-20T04:25:43.190Z,-0.70
2019-01-20T04:28:13.745Z,-0.70
2019-01-20T04:30:44.323Z,-0.80
2019-01-20T04:33:14.856Z,-0.70
2019-01-20T04:35:45.413Z,-0.70
2019-01-20T04:38:15.936Z,-0.80
2019-01-20T04:40:46.515Z,-0.70
2019-01-20T04:43:17.215Z,-0.80
2019-01-20T04:45:47.716Z,-0.70
2019-01-20T04:48:18.259Z,-0.70
2019-01-20T04:50:48.777Z,-0.80
2019-01-20T04:53:19.357Z,-0.60
2019-01-20T04:55:49.905Z,-0.90
2019-01-20T04:58:20.892Z,-0.70
2019-01-20T05:00:51.434Z,-0.70
2019-01-20T05:03:21.991Z,-0.60
2019-01-20T05:05:52.535Z,-0.90
2019-01-20T05:08:23.114Z,-0.70
2019-01-20T05:10:53.711Z,-0.70
2019-01-20T05:13:24.272Z,-0.60
2019-01-20T05:15:54.836Z,-0.70
2019-01-20T05:18:25.368Z,-0.50
2019-01-20T05:20:55.923Z,-0.60
2019-01-20T05:23:26.480Z,-0.80
2019-01-20T05:25:57.000Z,-0.80
2019-01-20T05:28:27.538Z,-0.70
2019-01-20T05:30:58.055Z,-0.70
2019-01-20T05:33:28.614Z,-0.70
2019-01-20T05:35:59.148Z,-0.70
2019-01-20T05:38:29.683Z,-0.60
2019-01-20T05:41:00.254Z,-0.50
2019-01-20T05:43:32.472Z,-0.70
2019-01-20T05:46:03.129Z,-0.60
2019-01-20T05:48:33.581Z,-0.80
2019-01-20T05:51:04.140Z,-0.70
2019-01-20T05:53:34.667Z,-0.80
2019-01-20T05:56:05.236Z,-0.70
2019-01-20T05:58:35.823Z,-0.70
2019-01-20T06:01:06.375Z,-0.60
2019-01-20T06:03:36.898Z,-0.40
2019-01-20T06:06:07.436Z,-0.40
2019-01-20T06:08:38.067Z,-0.50
2019-01-20T06:11:08.682Z,-0.80
2019-01-20T06:13:39.207Z,-0.70
2019-01-20T06:16:10.930Z,-0.70
2019-01-20T06:18:41.502Z,-0.50
2019-01-20T06:21:12.063Z,-0.50
2019-01-20T06:23:42.623Z,-0.50
2019-01-20T06:26:13.139Z,-0.60
2019-01-20T06:28:43.718Z,-0.50
2019-01-20T06:31:14.276Z,-0.50
2019-01-20T06:33:44.960Z,-0.50
2019-01-20T06:36:15.529Z,-0.40
2019-01-20T06:38:46.168Z,-0.60
2019-01-20T06:41:16.879Z,-0.80
2019-01-20T06:43:47.541Z,-0.70
2019-01-20T06:46:18.092Z,-0.50
2019-01-20T06:48:48.715Z,-0.70
2019-01-20T06:51:19.299Z,-0.60
2019-01-20T06:53:49.907Z,-0.60
2019-01-20T06:56:20.536Z,-0.20
2019-01-20T06:58:51.083Z,-0.40
2019-01-20T07:01:21.652Z,-0.60
2019-01-20T07:03:52.184Z,-0.50
2019-01-20T07:06:22.715Z,-0.50
2019-01-20T07:08:53.271Z,-0.50
2019-01-20T07:11:23.868Z,-0.50
2019-01-20T07:13:54.636Z,-0.40
2019-01-20T07:16:25.175Z,-0.50
2019-01-20T07:18:55.716Z,-0.20
2019-01-20T07:21:26.300Z,-0.50
2019-01-20T07:23:56.824Z,-0.20
2019-01-20T07:26:27.372Z,-0.20
2019-01-20T07:28:57.915Z,-0.20
2019-01-20T07:31:28.512Z,-0.20
2019-01-20T07:33:59.069Z,0.00
2019-01-20T07:36:29.595Z,-0.30
2019-01-20T07:39:00.151Z,0.00
2019-01-20T07:41:30.736Z,-0.20
2019-01-20T07:44:01.296Z,0.00
2019-01-20T07:46:31.824Z,0.00
2019-01-20T07:49:02.402Z,0.10
2019-01-20T07:51:33.883Z,0.10
2019-01-20T07:54:04.429Z,-0.10
2019-01-20T07:56:35.036Z,0.10
2019-01-20T07:59:05.622Z,0.20
2019-01-20T08:01:36.155Z,0.20
2019-01-20T08:04:06.696Z,0.30
2019-01-20T08:06:37.493Z,0.30
2019-01-20T08:09:09.011Z,0.30
2019-01-20T08:11:40.735Z,0.40
2019-01-20T08:14:11.428Z,0.40
2019-01-20T08:16:41.986Z,0.40
2019-01-20T08:19:12.536Z,0.40
2019-01-20T08:21:43.075Z,0.50
2019-01-20T08:24:13.736Z,0.30
2019-01-20T08:26:44.276Z,0.40
2019-01-20T08:29:14.828Z,0.30
2019-01-20T08:31:45.387Z,0.40
2019-01-20T08:34:15.903Z,0.40
2019-01-20T08:36:46.523Z,0.50
2019-01-20T08:39:17.060Z,0.60
2019-01-20T08:41:47.632Z,0.70
2019-01-20T08:44:18.260Z,0.70
2019-01-20T08:46:57.067Z,0.90
2019-01-20T08:49:27.598Z,0.80
2019-01-20T08:51:58.155Z,1.00
2019-01-20T08:54:28.824Z,1.20
2019-01-20T08:56:59.390Z,1.20
2019-01-20T08:59:29.923Z,1.00
2019-01-20T09:02:00.531Z,1.10
2019-01-20T09:04:31.080Z,1.10
2019-01-20T09:07:01.602Z,1.10
2019-01-20T09:09:32.139Z,0.70
2019-01-20T09:12:02.733Z,0.70
2019-01-20T09:14:33.312Z,0.80
2019-01-20T09:17:03.882Z,0.90
2019-01-20T09:19:34.449Z,1.20
2019-01-20T09:22:05.025Z,1.20
2019-01-20T09:24:35.562Z,1.20
2019-01-20T09:27:06.132Z,1.40
2019-01-20T09:29:36.652Z,1.40
2019-01-20T09:32:07.188Z,1.60
2019-01-20T09:34:37.776Z,1.40
2019-01-20T09:37:08.320Z,1.70
2019-01-20T09:39:38.880Z,1.70
2019-01-20T09:42:09.427Z,1.60
2019-01-20T09:44:39.949Z,1.50
2019-01-20T09:47:10.484Z,1.50
2019-01-20T09:49:41.044Z,1.60
2019-01-20T09:52:11.620Z,1.60
2019-01-20T09:54:42.243Z,1.70
2019-01-20T09:57:12.812Z,1.30
2019-01-20T09:59:43.359Z,1.00
2019-01-20T10:02:13.932Z,0.80
2019-01-20T10:04:44.497Z,0.60
2019-01-20T10:07:15.038Z,1.20
2019-01-20T10:09:45.622Z,1.10
2019-01-20T10:12:16.163Z,1.30
2019-01-20T10:14:46.821Z,1.40
2019-01-20T10:17:17.395Z,1.60
2019-01-20T10:19:47.952Z,1.60
2019-01-20T10:22:18.540Z,2.00
2019-01-20T10:24:49.124Z,2.10
2019-01-20T10:27:19.837Z,1.80
2019-01-20T10:29:50.379Z,2.00
2019-01-20T10:32:20.913Z,1.80
2019-01-20T10:34:52.704Z,2.10
2019-01-20T10:37:23.506Z,1.70
2019-01-20T10:39:54.128Z,1.90
2019-01-20T10:42:24.715Z,2.20
2019-01-20T10:44:55.285Z,2.30
2019-01-20T10:47:25.907Z,2.40
2019-01-20T10:49:56.515Z,2.50
2019-01-20T10:52:27.055Z,2.20
2019-01-20T10:54:57.596Z,2.10
2019-01-20T10:57:28.159Z,1.90
2019-01-20T10:59:58.730Z,1.40
2019-01-20T11:02:29.563Z,1.50
2019-01-20T11:05:00.182Z,1.40
2019-01-20T11:07:30.683Z,1.40
2019-01-20T11:10:01.237Z,1.30
2019-01-20T11:12:31.777Z,1.10
2019-01-20T11:15:02.285Z,0.80
2019-01-20T11:17:32.868Z,1.00
2019-01-20T11:20:03.454Z,1.00
2019-01-20T11:22:34.052Z,1.20
2019-01-20T11:25:04.852Z,1.30
2019-01-20T11:27:35.433Z,1.60
2019-01-20T11:30:06.484Z,1.60
2019-01-20T11:32:42.337Z,1.40
2019-01-20T11:35:11.342Z,1.90
2019-01-20T11:37:42.035Z,1.80
2019-01-20T11:40:13.273Z,1.50
2019-01-20T11:42:43.865Z,1.40
2019-01-20T11:45:17.583Z,1.70
2019-01-20T11:47:48.144Z,1.70
2019-01-20T11:50:18.808Z,1.70
2019-01-20T11:52:49.528Z,1.20
2019-01-20T11:55:21.281Z,1.20
2019-01-20T11:57:51.844Z,1.00
2019-01-20T12:00:31.295Z,0.90
2019-01-20T12:03:01.871Z,0.70
2019-01-20T12:05:33.558Z,0.60
2019-01-20T12:08:04.132Z,0.60
2019-01-20T12:10:34.658Z,0.40
2019-01-20T12:13:07.234Z,0.40
2019-01-20T12:15:37.840Z,0.20
2019-01-20T12:18:08.419Z,0.20
2019-01-20T12:20:38.953Z,0.40
2019-01-20T12:23:09.530Z,0.10
2019-01-20T12:25:40.152Z,0.40
2019-01-20T12:28:10.661Z,0.90
2019-01-20T12:30:41.195Z,1.40
2019-01-20T12:33:11.773Z,1.60
2019-01-20T12:35:42.720Z,1.90
2019-01-20T12:38:13.320Z,1.80
2019-01-20T12:40:48.319Z,1.90
2019-01-20T12:43:19.091Z,1.70
2019-01-20T12:45:49.683Z,2.00
2019-01-20T12:48:20.283Z,1.90
2019-01-20T12:50:50.868Z,1.90
2019-01-20T12:53:21.432Z,1.80
2019-01-20T12:55:52.008Z,1.70
2019-01-20T12:58:22.674Z,1.70
2019-01-20T13:00:53.288Z,1.80
2019-01-20T13:03:23.860Z,1.60
2019-01-20T13:05:54.396Z,1.60
2019-01-20T13:08:24.974Z,1.60
2019-01-20T13:10:55.561Z,1.40
2019-01-20T13:13:45.264Z,1.60
2019-01-20T13:16:15.966Z,1.40
2019-01-20T13:18:46.540Z,1.50
2019-01-20T13:21:17.084Z,1.50
2019-01-20T13:23:47.612Z,1.40
2019-01-20T13:26:18.139Z,1.50
2019-01-20T13:28:48.724Z,1.40
2019-01-20T13:31:19.267Z,1.10
2019-01-20T13:33:49.812Z,1.20
2019-01-20T13:36:20.391Z,1.10
2019-01-20T13:38:50.940Z,1.20
2019-01-20T13:41:33.561Z,1.20
2019-01-20T13:44:04.159Z,1.30
2019-01-20T13:46:34.711Z,0.90
2019-01-20T13:49:05.276Z,0.70
2019-01-20T13:51:35.792Z,0.70
2019-01-20T13:54:06.384Z,1.10
2019-01-20T13:56:36.943Z,0.80
2019-01-20T13:59:07.514Z,0.70
2019-01-20T14:01:38.019Z,0.70
2019-01-20T14:04:08.637Z,0.80
2019-01-20T14:06:40.384Z,0.50
2019-01-20T14:09:10.931Z,0.80
2019-01-20T14:11:41.523Z,0.60
2019-01-20T14:14:12.043Z,0.60
2019-01-20T14:16:42.637Z,0.60
2019-01-20T14:19:13.179Z,0.30
2019-01-20T14:21:43.713Z,0.50
2019-01-20T14:24:14.261Z,0.50
2019-01-20T14:26:44.815Z,0.50
2019-01-20T14:29:15.376Z,0.50
2019-01-20T14:31:45.948Z,0.70
2019-01-20T14:34:16.455Z,0.70
2019-01-20T14:36:47.016Z,0.60
2019-01-20T14:39:17.583Z,0.50
2019-01-20T14:41:48.138Z,0.50
2019-01-20T14:44:18.684Z,0.50
2019-01-20T14:46:49.204Z,0.60
2019-01-20T14:49:19.731Z,0.70
2019-01-20T14:51:50.301Z,0.50
2019-01-20T14:54:20.824Z,0.40
2019-01-20T14:56:51.425Z,0.40
2019-01-20T14:59:21.968Z,0.30
2019-01-20T15:01:52.623Z,0.20
2019-01-20T15:04:23.220Z,0.60
2019-01-20T15:06:53.814Z,0.30
2019-01-20T15:09:24.449Z,0.30
2019-01-20T15:11:55.900Z,0.40
2019-01-20T15:14:26.470Z,0.50
2019-01-20T15:16:56.979Z,0.30
2019-01-20T15:19:27.552Z,-0.20
2019-01-20T15:21:58.159Z,-0.20
2019-01-20T15:24:31.374Z,-0.60
2019-01-20T15:27:00.966Z,-0.90
2019-01-20T15:29:31.512Z,-1.00
2019-01-20T15:32:02.111Z,-1.10
2019-01-20T15:34:32.647Z,-0.80
2019-01-20T15:37:03.193Z,-0.90
2019-01-20T15:39:33.714Z,-0.50
2019-01-20T15:42:04.332Z,-0.50
2019-01-20T15:44:34.868Z,-0.30
2019-01-20T15:47:05.429Z,-0.40
2019-01-20T15:49:36.026Z,-0.30
2019-01-20T15:52:06.604Z,-0.30
2019-01-20T15:54:37.169Z,-0.10
2019-01-20T15:57:07.721Z,0.00
2019-01-20T15:59:38.337Z,-0.30
2019-01-20T16:02:08.905Z,-0.20
2019-01-20T16:04:39.479Z,-0.10
2019-01-20T16:07:10.051Z,-0.10
2019-01-20T16:09:40.735Z,-0.40
2019-01-20T16:12:11.376Z,0.00
2019-01-20T16:14:41.872Z,-0.30
2019-01-20T16:17:12.412Z,0.00
2019-01-20T16:19:42.992Z,-0.20
2019-01-20T16:22:13.532Z,-0.30
2019-01-20T16:24:44.116Z,-0.30
2019-01-20T16:27:15.075Z,0.00
2019-01-20T16:29:45.661Z,-0.20
2019-01-20T16:32:16.256Z,-0.20
2019-01-20T16:34:46.819Z,0.10
2019-01-20T16:37:17.353Z,-0.10
2019-01-20T16:39:47.900Z,0.00
2019-01-20T16:42:18.489Z,-0.10
2019-01-20T16:44:49.121Z,0.00
2019-01-20T16:47:19.647Z,-0.10
2019-01-20T16:49:50.262Z,-0.20
2019-01-20T16:52:20.866Z,-0.10
2019-01-20T16:54:51.489Z,0.00
2019-01-20T16:57:22.066Z,-0.20
2019-01-20T16:59:52.745Z,0.00
2019-01-20T17:02:23.354Z,-0.10
2019-01-20T17:04:54.184Z,-0.20
2019-01-20T17:07:24.766Z,-0.30
2019-01-20T17:09:55.320Z,-0.20
2019-01-20T17:12:25.865Z,-0.10
2019-01-20T17:14:56.441Z,0.10
2019-01-20T17:17:26.984Z,-0.20
2019-01-20T17:19:57.632Z,-0.20
2019-01-20T17:22:28.253Z,0.00
2019-01-20T17:24:58.832Z,-0.10
2019-01-20T17:27:29.382Z,0.00
2019-01-20T17:29:59.944Z,-0.30
2019-01-20T17:32:30.525Z,0.00
2019-01-20T17:35:01.063Z,0.00
2019-01-20T17:37:31.660Z,0.00
2019-01-20T17:40:02.228Z,-0.10
2019-01-20T17:42:32.875Z,-0.10
2019-01-20T17:45:03.383Z,-0.10
2019-01-20T17:47:34.025Z,0.20
2019-01-20T17:50:05.986Z,0.10
2019-01-20T17:52:36.544Z,0.10
2019-01-20T17:55:07.731Z,-0.10
2019-01-20T17:57:38.340Z,-0.20
2019-01-20T18:00:11.960Z,0.10
2019-01-20T18:02:42.534Z,0.10
2019-01-20T18:05:14.096Z,-0.30
2019-01-20T18:07:44.757Z,-0.20
2019-01-20T18:10:15.431Z,-0.10
2019-01-20T18:12:46.016Z,0.10
2019-01-20T18:15:17.650Z,0.00
2019-01-20T18:17:48.227Z,-0.10
2019-01-20T18:20:20.920Z,-0.20
2019-01-20T18:22:51.599Z,-0.10
2019-01-20T18:25:22.345Z,-0.10
2019-01-20T18:27:52.911Z,0.00
2019-01-20T18:30:24.572Z,-0.10
2019-01-20T18:32:55.185Z,-0.10
2019-01-20T18:35:26.467Z,-0.10
2019-01-20T18:37:57.049Z,-0.40
2019-01-20T18:40:27.651Z,-0.50
2019-01-20T18:42:58.269Z,-0.60
2019-01-20T18:45:30.720Z,-0.40
2019-01-20T18:48:01.309Z,-0.70
2019-01-20T18:50:34.037Z,-0.70
2019-01-20T18:53:05.129Z,-0.40
2019-01-20T18:55:36.632Z,-0.50
2019-01-20T18:58:07.585Z,-0.30
2019-01-20T19:00:41.133Z,-0.50
2019-01-20T19:03:11.718Z,-0.20
2019-01-20T19:05:42.412Z,-0.30
2019-01-20T19:08:13.081Z,-0.50
2019-01-20T19:10:43.818Z,-0.40
2019-01-20T19:13:14.427Z,-0.40
2019-01-20T19:15:45.048Z,-0.50
2019-01-20T19:18:20.023Z,-0.40
2019-01-20T19:20:50.635Z,-0.20
2019-01-20T19:23:21.830Z,-0.30
2019-01-20T19:25:52.440Z,-0.60
2019-01-20T19:28:23.008Z,-0.50
2019-01-20T19:30:53.563Z,-0.60
2019-01-20T19:33:24.101Z,-0.80
2019-01-20T19:35:54.707Z,-0.60
2019-01-20T19:38:25.260Z,-0.50
2019-01-20T19:40:56.007Z,-0.70
2019-01-20T19:43:26.540Z,-0.70
2019-01-20T19:45:57.109Z,-0.30
2019-01-20T19:48:27.669Z,-0.50
2019-01-20T19:50:58.228Z,-0.50
2019-01-20T19:53:28.765Z,-0.40
2019-01-20T19:55:59.324Z,-0.40
2019-01-20T19:58:29.902Z,-0.40
2019-01-20T20:01:00.499Z,-0.20
2019-01-20T20:03:31.096Z,-0.40
2019-01-20T20:06:01.639Z,-0.40
2019-01-20T20:08:32.240Z,-0.40
2019-01-20T20:11:05.579Z,-0.20
2019-01-20T20:13:36.153Z,-0.20
2019-01-20T20:16:06.701Z,-0.30
2019-01-20T20:18:37.312Z,-0.40
2019-01-20T20:21:07.890Z,-0.40
2019-01-20T20:23:38.492Z,-0.20
2019-01-20T20:26:09.093Z,-0.20
2019-01-20T20:28:39.695Z,-0.40
2019-01-20T20:31:10.260Z,-0.60
2019-01-20T20:33:40.817Z,-0.70
2019-01-20T20:36:11.436Z,-0.80
2019-01-20T20:38:41.976Z,-0.80
2019-01-20T20:41:12.535Z,-0.80
2019-01-20T20:43:43.075Z,-0.90
2019-01-20T20:46:13.668Z,-0.80
2019-01-20T20:48:44.265Z,-0.70
2019-01-20T20:51:14.830Z,-0.70
2019-01-20T20:53:45.400Z,-0.40
2019-01-20T20:56:15.956Z,-0.30
2019-01-20T20:58:46.589Z,-0.40
2019-01-20T21:01:17.144Z,-0.30
2019-01-20T21:03:47.656Z,0.00
2019-01-20T21:06:18.206Z,-0.10
2019-01-20T21:08:48.800Z,0.20
2019-01-20T21:11:19.616Z,0.10
2019-01-20T21:13:50.167Z,0.20
2019-01-20T21:16:20.785Z,0.10
2019-01-20T21:18:51.341Z,0.10
2019-01-20T21:21:26.534Z,0.20
2019-01-20T21:23:54.092Z,-0.20
2019-01-20T21:26:24.684Z,-0.10
2019-01-20T21:28:55.212Z,0.20
2019-01-20T21:31:25.976Z,0.00
2019-01-20T21:33:56.551Z,0.00
2019-01-20T21:36:27.112Z,0.00
2019-01-20T21:38:57.654Z,0.10
2019-01-20T21:41:28.189Z,-0.20
2019-01-20T21:43:58.776Z,0.20
2019-01-20T21:46:29.345Z,0.00
2019-01-20T21:49:00.011Z,-0.20
2019-01-20T21:51:30.536Z,-0.10
2019-01-20T21:54:01.086Z,0.10
2019-01-20T21:56:31.671Z,-0.10
2019-01-20T21:59:02.268Z,-0.10
2019-01-20T22:01:32.866Z,-0.30
2019-01-20T22:04:03.488Z,-0.50
2019-01-20T22:06:34.075Z,-0.90
2019-01-20T22:09:06.065Z,-1.00
2019-01-20T22:11:36.727Z,-1.20
2019-01-20T22:14:08.110Z,-1.70
2019-01-20T22:16:38.631Z,-1.90
2019-01-20T22:19:09.188Z,-2.00
2019-01-20T22:21:39.801Z,-2.10
2019-01-20T22:24:10.392Z,-2.30
2019-01-20T22:26:40.932Z,-2.40
2019-01-20T22:29:11.489Z,-2.70
2019-01-20T22:31:42.028Z,-2.50
2019-01-20T22:34:12.563Z,-2.90
2019-01-20T22:36:43.112Z,-2.80
2019-01-20T22:39:13.708Z,-2.90
2019-01-20T22:41:44.323Z,-2.90
2019-01-20T22:44:14.884Z,-2.80
2019-01-20T22:46:45.465Z,-2.40
2019-01-20T22:49:16.104Z,-2.40
2019-01-20T22:51:46.740Z,-2.50
2019-01-20T22:54:18.252Z,-2.30
2019-01-20T22:56:48.787Z,-2.40
2019-01-20T22:59:19.389Z,-2.40
2019-01-20T23:01:49.976Z,-2.20
2019-01-20T23:04:20.600Z,-2.30
2019-01-20T23:06:51.292Z,-2.40
2019-01-20T23:09:22.439Z,-2.30
2019-01-20T23:11:52.983Z,-2.40
2019-01-20T23:14:23.544Z,-2.50
2019-01-20T23:16:54.126Z,-2.50
2019-01-20T23:19:24.692Z,-2.80
2019-01-20T23:21:55.274Z,-3.10
2019-01-20T23:24:25.827Z,-3.10
2019-01-20T23:26:56.408Z,-3.20
2019-01-20T23:29:26.954Z,-3.20
2019-01-20T23:31:57.509Z,-3.20
2019-01-20T23:34:28.060Z,-3.30
2019-01-20T23:36:58.612Z,-3.20
2019-01-20T23:39:29.130Z,-3.20
2019-01-20T23:41:59.697Z,-3.50
2019-01-20T23:44:30.234Z,-3.20
2019-01-20T23:47:00.825Z,-3.20
2019-01-20T23:49:31.323Z,-3.10
2019-01-20T23:52:02.011Z,-3.00
2019-01-20T23:54:32.607Z,-2.90
2019-01-20T23:57:03.269Z,-2.70
2019-01-20T23:59:33.840Z,-2.50
